Georgia Highway — 7JCV — position and weather

sailwx.info

Track history (hours):
 
Tides and Currents Weather Stations Pressure Air Temp Water Temp Dewpoint Dewpoint Depression Visibility Wind Speed Wind Dir Waves Ship Positions

Georgia Highway

Last reported at 2016-Apr-30 20:33 UTC. Time now 2016-Apr-30 20:43 UTC.
Position N 50°53' W 001°24'.

Length 200 m; draft 9.1 m.

Type: Cargo ship. MMSI: 432629000.

Date/timePositionNaut miles runAvg speedWind from/ knotsBaromVisibWave heightAir tempDewpointWater temp
2016-Apr-30 20:33N 50°53' W 001°24'0 0.0
2016-Apr-30 19:33N 50°53' W 001°24'0 0.0
2016-Apr-30 18:33N 50°53' W 001°24'0 0.0
2016-Apr-30 17:30N 50°53' W 001°24'0 0.0
2016-Apr-30 16:33N 50°53' W 001°24'0 0.0
2016-Apr-30 15:30N 50°53' W 001°24'0 0.0
2016-Apr-30 14:30N 50°53' W 001°24'0 0.0
2016-Apr-30 13:30N 50°53' W 001°24'0 0.0
2016-Apr-30 12:33N 50°53' W 001°24'0 0.0
2016-Apr-30 11:33N 50°53' W 001°24'0 0.0
2016-Apr-30 10:27N 50°53' W 001°24'0 0.0
2016-Apr-30 09:27N 50°53' W 001°24'0 0.0
2016-Apr-30 08:33N 50°53' W 001°24'0 0.0
2016-Apr-30 07:33N 50°53' W 001°24'1 0.8
2016-Apr-30 06:33N 50°53' W 001°23'7 7.1
2016-Apr-30 05:34N 50°47' W 001°17'1413.9
2016-Apr-30 04:33N 50°41' W 000°57'6 5.9
2016-Apr-30 03:33N 50°38' W 000°49'1615.9
2016-Apr-30 02:34N 50°35' W 000°24'1615.8
2016-Apr-30 01:33N 50°32' E 000°00'1615.6
2016-Apr-30 00:33N 50°36' E 000°24'3316.5
2016-Apr-29 22:33N 50°53' E 001°08'1717.3
2016-Apr-29 21:33N 51°05' E 001°29'1616.0
2016-Apr-29 20:34N 51°16' E 001°47'1515.4
2016-Apr-29 19:33N 51°30' E 001°59'1514.8
2016-Apr-29 18:34N 51°41' E 002°15'15014.9
2016-Apr-29 08:33N 53°33' E 004°57'1414.5
2016-Apr-29 07:33N 53°39' E 005°20'1615.6
2016-Apr-29 06:34N 53°43' E 005°45'1615.9
2016-Apr-29 05:33N 53°48' E 006°10'1616.1
2016-Apr-29 04:33N 53°52' E 006°37'1716.5
2016-Apr-29 03:33N 53°56' E 007°04'1616.3
2016-Apr-29 02:33N 53°59' E 007°31'1313.1
2016-Apr-29 01:33N 53°52' E 007°51'1211.7
2016-Apr-29 00:33N 53°47' E 008°09'1312.9
2016-Apr-28 23:33N 53°39' E 008°25'7 6.6
2016-Apr-28 22:33N 53°34' E 008°33'1 0.6
2016-Apr-28 21:31N 53°35' E 008°33'0 0.0
2016-Apr-28 20:31N 53°35' E 008°33'0 0.0
2016-Apr-28 19:31N 53°35' E 008°33'0 0.0
2016-Apr-28 18:31N 53°35' E 008°33'0 0.0
2016-Apr-28 17:31N 53°35' E 008°33'0 0.0
2016-Apr-28 16:31N 53°35' E 008°33'0 0.0
2016-Apr-28 15:31N 53°35' E 008°33'0 0.0
2016-Apr-28 14:31N 53°35' E 008°33'0 0.0
2016-Apr-28 13:31N 53°35' E 008°33'0 0.0
2016-Apr-28 12:31N 53°35' E 008°33'0 0.0
2016-Apr-28 11:31N 53°35' E 008°33'0 0.0
2016-Apr-28 10:31N 53°35' E 008°33'0 0.0
2016-Apr-28 09:31N 53°35' E 008°33'0 0.0
2016-Apr-28 08:31N 53°35' E 008°33'0 0.0
2016-Apr-28 07:31N 53°35' E 008°33'0 0.0
2016-Apr-28 06:31N 53°35' E 008°33'0 0.0
2016-Apr-28 05:31N 53°35' E 008°33'0 0.0
2016-Apr-28 04:31N 53°35' E 008°33'0 0.0
2016-Apr-28 03:31N 53°35' E 008°33'0 0.0
2016-Apr-28 02:31N 53°35' E 008°33'0 0.0
2016-Apr-28 01:31N 53°35' E 008°33'0 0.0
2016-Apr-28 00:31N 53°35' E 008°33'0 0.0
2016-Apr-27 23:31N 53°35' E 008°33'0 0.0
2016-Apr-27 22:31N 53°35' E 008°33'0 0.5
2016-Apr-27 21:33N 53°34' E 008°33'1 0.5
2016-Apr-27 20:33N 53°34' E 008°33'8 8.1
2016-Apr-27 19:33N 53°40' E 008°23'1312.8
2016-Apr-27 18:34N 53°48' E 008°08'1212.2
2016-Apr-27 17:33N 53°52' E 007°48'1211.6
2016-Apr-27 16:33N 54°01' E 007°34'3 3.4
2016-Apr-27 15:32N 54°01' E 007°29'0 0.1
2016-Apr-27 14:32N 54°01' E 007°29'0 0.0
2016-Apr-27 13:32N 54°01' E 007°29'0 0.0
2016-Apr-27 12:33N 54°01' E 007°29'0 0.1
2016-Apr-27 11:33N 54°01' E 007°29'0 0.0
2016-Apr-27 10:32N 54°01' E 007°29'0 0.1
2016-Apr-27 09:29N 54°01' E 007°28'0 0.0
2016-Apr-27 08:32N 54°01' E 007°28'0 0.0
2016-Apr-27 07:32N 54°01' E 007°29'0 0.0
2016-Apr-27 06:32N 54°01' E 007°29'0 0.1
2016-Apr-27 05:32N 54°01' E 007°28'0 0.0
2016-Apr-27 04:32N 54°01' E 007°28'0 0.0
2016-Apr-27 03:32N 54°01' E 007°28'0 0.0
2016-Apr-27 02:32N 54°01' E 007°28'0 0.1
2016-Apr-27 01:32N 54°01' E 007°29'0 0.0
2016-Apr-27 00:32N 54°01' E 007°29'0 0.1
2016-Apr-26 23:32N 54°01' E 007°29'0 0.0
2016-Apr-26 22:32N 54°01' E 007°29'0 0.1
2016-Apr-26 21:32N 54°01' E 007°28'0 0.0
2016-Apr-26 20:32N 54°01' E 007°28'0 0.0
2016-Apr-26 19:32N 54°01' E 007°28'0 0.0
2016-Apr-26 18:32N 54°01' E 007°28'0 0.0
2016-Apr-26 17:32N 54°01' E 007°28'0 0.0
2016-Apr-26 16:32N 54°01' E 007°28'0 0.0
2016-Apr-26 15:32N 54°01' E 007°29'0 0.1
2016-Apr-26 14:32N 54°01' E 007°28'0 0.1
2016-Apr-26 13:32N 54°01' E 007°29'0 0.0
2016-Apr-26 12:32N 54°01' E 007°29'0 0.0
2016-Apr-26 11:32N 54°01' E 007°29'0 0.0
2016-Apr-26 10:32N 54°01' E 007°29'0 0.0
2016-Apr-26 09:32N 54°01' E 007°29'0 0.0
2016-Apr-26 08:32N 54°01' E 007°29'0 0.0
2016-Apr-26 07:32N 54°01' E 007°29'0 0.0
2016-Apr-26 06:32N 54°01' E 007°29'0 0.0
2016-Apr-26 05:32N 54°01' E 007°28'0 0.1
2016-Apr-26 04:32N 54°01' E 007°29'0 0.1
2016-Apr-26 03:32N 54°01' E 007°29'0 0.0
2016-Apr-26 02:32N 54°01' E 007°29'0 0.0
2016-Apr-26 01:32N 54°01' E 007°29'0 0.0
2016-Apr-26 00:32N 54°01' E 007°29'0 0.0
2016-Apr-25 23:32N 54°01' E 007°29'0 0.0
2016-Apr-25 22:32N 54°01' E 007°29'0 0.0
2016-Apr-25 21:32N 54°01' E 007°29'0 0.0
2016-Apr-25 20:32N 54°01' E 007°29'0 0.0
2016-Apr-25 19:32N 54°01' E 007°29'0 0.0
2016-Apr-25 18:32N 54°01' E 007°29'0 0.0
2016-Apr-25 17:32N 54°01' E 007°29'0 0.0
2016-Apr-25 16:32N 54°01' E 007°29'0 0.1
2016-Apr-25 15:32N 54°02' E 007°29'0 0.0
2016-Apr-25 14:32N 54°02' E 007°29'0 0.1
2016-Apr-25 13:32N 54°01' E 007°29'0 0.0
2016-Apr-25 12:32N 54°01' E 007°29'0 0.0
2016-Apr-25 11:32N 54°01' E 007°29'0 0.0
2016-Apr-25 10:32N 54°01' E 007°29'0 0.0
2016-Apr-25 09:32N 54°01' E 007°29'0 0.0
2016-Apr-25 08:32N 54°01' E 007°29'0 0.0
2016-Apr-25 07:32N 54°01' E 007°29'0 0.0
2016-Apr-25 06:32N 54°01' E 007°29'0 0.0
2016-Apr-25 05:32N 54°01' E 007°29'0 0.0
2016-Apr-25 04:32N 54°01' E 007°29'0 0.0
2016-Apr-25 03:32N 54°01' E 007°29'0 0.0
2016-Apr-25 02:32N 54°01' E 007°29'0 0.1
2016-Apr-25 01:32N 54°01' E 007°29'0 0.0
2016-Apr-25 00:32N 54°01' E 007°29'0 0.0
2016-Apr-24 23:29N 54°01' E 007°29'0 0.0
2016-Apr-24 22:32N 54°01' E 007°29'0 0.0
2016-Apr-24 21:32N 54°01' E 007°29'0 0.1
2016-Apr-24 20:32N 54°01' E 007°29'0 0.0
2016-Apr-24 19:32N 54°01' E 007°28'0 0.1
2016-Apr-24 18:32N 54°01' E 007°29'0 0.0
2016-Apr-24 17:32N 54°01' E 007°29'0 0.0
2016-Apr-24 16:32N 54°01' E 007°29'0 0.0
2016-Apr-24 15:32N 54°01' E 007°29'0 0.0
2016-Apr-24 14:32N 54°01' E 007°29'0 0.0
2016-Apr-24 13:32N 54°01' E 007°29'0 0.0
2016-Apr-24 12:32N 54°01' E 007°29'0 0.0
2016-Apr-24 11:32N 54°01' E 007°29'0 0.0
2016-Apr-24 10:32N 54°01' E 007°29'0 0.0
2016-Apr-24 09:32N 54°01' E 007°29'0 0.0
2016-Apr-24 08:32N 54°01' E 007°29'0 0.0
2016-Apr-24 07:32N 54°01' E 007°29'0 0.0
2016-Apr-24 06:32N 54°01' E 007°29'0 0.1
2016-Apr-24 05:32N 54°01' E 007°29'0 0.1
2016-Apr-24 04:32N 54°01' E 007°29'0 0.1
2016-Apr-24 03:32N 54°01' E 007°29'0 0.0
2016-Apr-24 02:32N 54°01' E 007°29'0 0.1
2016-Apr-24 01:26N 54°01' E 007°29'0 0.0
2016-Apr-24 00:32N 54°01' E 007°29'0 0.1
2016-Apr-23 23:32N 54°01' E 007°29'0 0.0
2016-Apr-23 22:32N 54°01' E 007°29'0 0.0
2016-Apr-23 21:32N 54°01' E 007°29'0 0.0
2016-Apr-23 20:32N 54°01' E 007°29'0 0.1
2016-Apr-23 19:32N 54°01' E 007°29'0 0.0
2016-Apr-23 18:32N 54°01' E 007°29'0 0.0
2016-Apr-23 17:32N 54°01' E 007°29'0 0.0
2016-Apr-23 16:32N 54°01' E 007°29'0 0.0
2016-Apr-23 15:32N 54°01' E 007°29'0 0.0
2016-Apr-23 14:32N 54°01' E 007°29'0 0.0
2016-Apr-23 13:32N 54°01' E 007°29'0 0.0
2016-Apr-23 12:32N 54°01' E 007°29'0 0.1
2016-Apr-23 11:32N 54°01' E 007°29'0 0.1
2016-Apr-23 10:32N 54°01' E 007°29'0 0.0
2016-Apr-23 09:32N 54°01' E 007°29'0 0.0
2016-Apr-23 08:32N 54°01' E 007°29'0 0.0
2016-Apr-23 07:32N 54°01' E 007°29'0 0.0
2016-Apr-23 06:32N 54°01' E 007°29'0 0.0
2016-Apr-23 05:32N 54°01' E 007°29'0 0.0
2016-Apr-23 04:32N 54°01' E 007°29'0 0.0
2016-Apr-23 03:32N 54°01' E 007°29'0 0.0
2016-Apr-23 02:32N 54°01' E 007°29'0 0.0
2016-Apr-23 01:32N 54°01' E 007°29'0 0.1
2016-Apr-23 00:32N 54°01' E 007°29'0 0.0
2016-Apr-22 23:32N 54°01' E 007°29'0 0.0
2016-Apr-22 22:32N 54°01' E 007°29'0 0.0
2016-Apr-22 21:32N 54°01' E 007°29'0 0.0
2016-Apr-22 20:32N 54°01' E 007°29'0 0.0
2016-Apr-22 19:32N 54°01' E 007°29'0 0.0
2016-Apr-22 18:32N 54°01' E 007°29'0 0.0
2016-Apr-22 17:32N 54°01' E 007°29'0 0.0
2016-Apr-22 16:29N 54°01' E 007°29'0 0.0
2016-Apr-22 15:32N 54°01' E 007°29'0 0.0
2016-Apr-22 14:32N 54°01' E 007°29'0 0.0
2016-Apr-22 13:32N 54°01' E 007°29'0 0.0
2016-Apr-22 12:32N 54°01' E 007°29'0 0.0
2016-Apr-22 11:32N 54°01' E 007°29'0 0.0
2016-Apr-22 10:32N 54°01' E 007°29'0 0.0
2016-Apr-22 09:32N 54°01' E 007°29'0 0.0
2016-Apr-22 08:32N 54°01' E 007°29'0 0.0
2016-Apr-22 07:32N 54°01' E 007°29'0 0.0
2016-Apr-22 06:32N 54°01' E 007°29'0 0.0
2016-Apr-22 05:32N 54°01' E 007°29'0 0.0
2016-Apr-22 04:32N 54°01' E 007°29'0 0.0
2016-Apr-22 03:32N 54°01' E 007°29'0 0.0
2016-Apr-22 02:29N 54°01' E 007°29'0 0.0
2016-Apr-22 01:32N 54°01' E 007°29'0 0.0
2016-Apr-22 00:32N 54°01' E 007°29'0 0.0
2016-Apr-21 23:29N 54°01' E 007°29'0 0.0
2016-Apr-21 22:32N 54°01' E 007°29'0 0.0
2016-Apr-21 21:32N 54°01' E 007°29'0 0.0
2016-Apr-21 20:32N 54°01' E 007°29'0 0.0
2016-Apr-21 19:32N 54°01' E 007°29'0 0.0
2016-Apr-21 18:32N 54°01' E 007°29'0 0.0
2016-Apr-21 17:32N 54°01' E 007°29'0 0.1
2016-Apr-21 16:32N 54°01' E 007°28'0 0.0
2016-Apr-21 15:32N 54°01' E 007°28'0 0.0
2016-Apr-21 14:32N 54°01' E 007°28'0 0.1
2016-Apr-21 13:32N 54°01' E 007°29'0 0.0
2016-Apr-21 12:32N 54°01' E 007°29'0 0.0
2016-Apr-21 11:32N 54°01' E 007°29'0 0.0
2016-Apr-21 10:32N 54°01' E 007°29'0 0.0
2016-Apr-21 09:32N 54°01' E 007°29'0 0.0
2016-Apr-21 08:32N 54°01' E 007°29'0 0.0
2016-Apr-21 07:29N 54°01' E 007°29'0 0.0
2016-Apr-21 06:29N 54°01' E 007°29'0 0.0
2016-Apr-21 05:32N 54°01' E 007°29'0 0.0
2016-Apr-21 04:32N 54°01' E 007°28'0 0.0
2016-Apr-21 03:32N 54°01' E 007°28'0 0.0
2016-Apr-21 02:32N 54°01' E 007°28'0 0.0
2016-Apr-21 01:32N 54°01' E 007°28'0 0.1
2016-Apr-21 00:32N 54°01' E 007°29'0 0.0
2016-Apr-20 23:32N 54°01' E 007°29'0 0.0
2016-Apr-20 22:32N 54°01' E 007°29'0 0.0
2016-Apr-20 21:32N 54°01' E 007°29'  
Track history (hours):
 
Tides and Currents Weather Stations Pressure Air Temp Water Temp Dewpoint Dewpoint Depression Visibility Wind Speed Wind Dir Waves Ship Positions

Georgia Highway

Last reported at 2016-Apr-30 20:33 UTC. Time now 2016-Apr-30 20:43 UTC.
Position N 50°53' W 001°24'.

Length 200 m; draft 9.1 m.

Type: Cargo ship. MMSI: 432629000.

Date/timePositionNaut miles runAvg speedWind from/ knotsBaromVisibWave heightAir tempDewpointWater temp
2016-Apr-30 20:33N 50°53' W 001°24'0 0.0
2016-Apr-30 19:33N 50°53' W 001°24'0 0.0
2016-Apr-30 18:33N 50°53' W 001°24'0 0.0
2016-Apr-30 17:30N 50°53' W 001°24'0 0.0
2016-Apr-30 16:33N 50°53' W 001°24'0 0.0
2016-Apr-30 15:30N 50°53' W 001°24'0 0.0
2016-Apr-30 14:30N 50°53' W 001°24'0 0.0
2016-Apr-30 13:30N 50°53' W 001°24'0 0.0
2016-Apr-30 12:33N 50°53' W 001°24'0 0.0
2016-Apr-30 11:33N 50°53' W 001°24'0 0.0
2016-Apr-30 10:27N 50°53' W 001°24'0 0.0
2016-Apr-30 09:27N 50°53' W 001°24'0 0.0
2016-Apr-30 08:33N 50°53' W 001°24'0 0.0
2016-Apr-30 07:33N 50°53' W 001°24'1 0.8
2016-Apr-30 06:33N 50°53' W 001°23'7 7.1
2016-Apr-30 05:34N 50°47' W 001°17'1413.9
2016-Apr-30 04:33N 50°41' W 000°57'6 5.9
2016-Apr-30 03:33N 50°38' W 000°49'1615.9
2016-Apr-30 02:34N 50°35' W 000°24'1615.8
2016-Apr-30 01:33N 50°32' E 000°00'1615.6
2016-Apr-30 00:33N 50°36' E 000°24'3316.5
2016-Apr-29 22:33N 50°53' E 001°08'1717.3
2016-Apr-29 21:33N 51°05' E 001°29'1616.0
2016-Apr-29 20:34N 51°16' E 001°47'1515.4
2016-Apr-29 19:33N 51°30' E 001°59'1514.8
2016-Apr-29 18:34N 51°41' E 002°15'15014.9
2016-Apr-29 08:33N 53°33' E 004°57'1414.5
2016-Apr-29 07:33N 53°39' E 005°20'1615.6
2016-Apr-29 06:34N 53°43' E 005°45'1615.9
2016-Apr-29 05:33N 53°48' E 006°10'1616.1
2016-Apr-29 04:33N 53°52' E 006°37'1716.5
2016-Apr-29 03:33N 53°56' E 007°04'1616.3
2016-Apr-29 02:33N 53°59' E 007°31'1313.1
2016-Apr-29 01:33N 53°52' E 007°51'1211.7
2016-Apr-29 00:33N 53°47' E 008°09'1312.9
2016-Apr-28 23:33N 53°39' E 008°25'7 6.6
2016-Apr-28 22:33N 53°34' E 008°33'1 0.6
2016-Apr-28 21:31N 53°35' E 008°33'0 0.0
2016-Apr-28 20:31N 53°35' E 008°33'0 0.0
2016-Apr-28 19:31N 53°35' E 008°33'0 0.0
2016-Apr-28 18:31N 53°35' E 008°33'0 0.0
2016-Apr-28 17:31N 53°35' E 008°33'0 0.0
2016-Apr-28 16:31N 53°35' E 008°33'0 0.0
2016-Apr-28 15:31N 53°35' E 008°33'0 0.0
2016-Apr-28 14:31N 53°35' E 008°33'0 0.0
2016-Apr-28 13:31N 53°35' E 008°33'0 0.0
2016-Apr-28 12:31N 53°35' E 008°33'0 0.0
2016-Apr-28 11:31N 53°35' E 008°33'0 0.0
2016-Apr-28 10:31N 53°35' E 008°33'0 0.0
2016-Apr-28 09:31N 53°35' E 008°33'0 0.0
2016-Apr-28 08:31N 53°35' E 008°33'0 0.0
2016-Apr-28 07:31N 53°35' E 008°33'0 0.0
2016-Apr-28 06:31N 53°35' E 008°33'0 0.0
2016-Apr-28 05:31N 53°35' E 008°33'0 0.0
2016-Apr-28 04:31N 53°35' E 008°33'0 0.0
2016-Apr-28 03:31N 53°35' E 008°33'0 0.0
2016-Apr-28 02:31N 53°35' E 008°33'0 0.0
2016-Apr-28 01:31N 53°35' E 008°33'0 0.0
2016-Apr-28 00:31N 53°35' E 008°33'0 0.0
2016-Apr-27 23:31N 53°35' E 008°33'0 0.0
2016-Apr-27 22:31N 53°35' E 008°33'0 0.5
2016-Apr-27 21:33N 53°34' E 008°33'1 0.5
2016-Apr-27 20:33N 53°34' E 008°33'8 8.1
2016-Apr-27 19:33N 53°40' E 008°23'1312.8
2016-Apr-27 18:34N 53°48' E 008°08'1212.2
2016-Apr-27 17:33N 53°52' E 007°48'1211.6
2016-Apr-27 16:33N 54°01' E 007°34'3 3.4
2016-Apr-27 15:32N 54°01' E 007°29'0 0.1
2016-Apr-27 14:32N 54°01' E 007°29'0 0.0
2016-Apr-27 13:32N 54°01' E 007°29'0 0.0
2016-Apr-27 12:33N 54°01' E 007°29'0 0.1
2016-Apr-27 11:33N 54°01' E 007°29'0 0.0
2016-Apr-27 10:32N 54°01' E 007°29'0 0.1
2016-Apr-27 09:29N 54°01' E 007°28'0 0.0
2016-Apr-27 08:32N 54°01' E 007°28'0 0.0
2016-Apr-27 07:32N 54°01' E 007°29'0 0.0
2016-Apr-27 06:32N 54°01' E 007°29'0 0.1
2016-Apr-27 05:32N 54°01' E 007°28'0 0.0
2016-Apr-27 04:32N 54°01' E 007°28'0 0.0
2016-Apr-27 03:32N 54°01' E 007°28'0 0.0
2016-Apr-27 02:32N 54°01' E 007°28'0 0.1
2016-Apr-27 01:32N 54°01' E 007°29'0 0.0
2016-Apr-27 00:32N 54°01' E 007°29'0 0.1
2016-Apr-26 23:32N 54°01' E 007°29'0 0.0
2016-Apr-26 22:32N 54°01' E 007°29'0 0.1
2016-Apr-26 21:32N 54°01' E 007°28'0 0.0
2016-Apr-26 20:32N 54°01' E 007°28'0 0.0
2016-Apr-26 19:32N 54°01' E 007°28'0 0.0
2016-Apr-26 18:32N 54°01' E 007°28'0 0.0
2016-Apr-26 17:32N 54°01' E 007°28'0 0.0
2016-Apr-26 16:32N 54°01' E 007°28'0 0.0
2016-Apr-26 15:32N 54°01' E 007°29'0 0.1
2016-Apr-26 14:32N 54°01' E 007°28'0 0.1
2016-Apr-26 13:32N 54°01' E 007°29'0 0.0
2016-Apr-26 12:32N 54°01' E 007°29'0 0.0
2016-Apr-26 11:32N 54°01' E 007°29'0 0.0
2016-Apr-26 10:32N 54°01' E 007°29'0 0.0
2016-Apr-26 09:32N 54°01' E 007°29'0 0.0
2016-Apr-26 08:32N 54°01' E 007°29'0 0.0
2016-Apr-26 07:32N 54°01' E 007°29'0 0.0
2016-Apr-26 06:32N 54°01' E 007°29'0 0.0
2016-Apr-26 05:32N 54°01' E 007°28'0 0.1
2016-Apr-26 04:32N 54°01' E 007°29'0 0.1
2016-Apr-26 03:32N 54°01' E 007°29'0 0.0
2016-Apr-26 02:32N 54°01' E 007°29'0 0.0
2016-Apr-26 01:32N 54°01' E 007°29'0 0.0
2016-Apr-26 00:32N 54°01' E 007°29'0 0.0
2016-Apr-25 23:32N 54°01' E 007°29'0 0.0
2016-Apr-25 22:32N 54°01' E 007°29'0 0.0
2016-Apr-25 21:32N 54°01' E 007°29'0 0.0
2016-Apr-25 20:32N 54°01' E 007°29'0 0.0
2016-Apr-25 19:32N 54°01' E 007°29'0 0.0
2016-Apr-25 18:32N 54°01' E 007°29'0 0.0
2016-Apr-25 17:32N 54°01' E 007°29'0 0.0
2016-Apr-25 16:32N 54°01' E 007°29'0 0.1
2016-Apr-25 15:32N 54°02' E 007°29'0 0.0
2016-Apr-25 14:32N 54°02' E 007°29'0 0.1
2016-Apr-25 13:32N 54°01' E 007°29'0 0.0
2016-Apr-25 12:32N 54°01' E 007°29'0 0.0
2016-Apr-25 11:32N 54°01' E 007°29'0 0.0
2016-Apr-25 10:32N 54°01' E 007°29'0 0.0
2016-Apr-25 09:32N 54°01' E 007°29'0 0.0
2016-Apr-25 08:32N 54°01' E 007°29'0 0.0
2016-Apr-25 07:32N 54°01' E 007°29'0 0.0
2016-Apr-25 06:32N 54°01' E 007°29'0 0.0
2016-Apr-25 05:32N 54°01' E 007°29'0 0.0
2016-Apr-25 04:32N 54°01' E 007°29'0 0.0
2016-Apr-25 03:32N 54°01' E 007°29'0 0.0
2016-Apr-25 02:32N 54°01' E 007°29'0 0.1
2016-Apr-25 01:32N 54°01' E 007°29'0 0.0
2016-Apr-25 00:32N 54°01' E 007°29'0 0.0
2016-Apr-24 23:29N 54°01' E 007°29'0 0.0
2016-Apr-24 22:32N 54°01' E 007°29'0 0.0
2016-Apr-24 21:32N 54°01' E 007°29'0 0.1
2016-Apr-24 20:32N 54°01' E 007°29'0 0.0
2016-Apr-24 19:32N 54°01' E 007°28'0 0.1
2016-Apr-24 18:32N 54°01' E 007°29'0 0.0
2016-Apr-24 17:32N 54°01' E 007°29'0 0.0
2016-Apr-24 16:32N 54°01' E 007°29'0 0.0
2016-Apr-24 15:32N 54°01' E 007°29'0 0.0
2016-Apr-24 14:32N 54°01' E 007°29'0 0.0
2016-Apr-24 13:32N 54°01' E 007°29'0 0.0
2016-Apr-24 12:32N 54°01' E 007°29'0 0.0
2016-Apr-24 11:32N 54°01' E 007°29'0 0.0
2016-Apr-24 10:32N 54°01' E 007°29'0 0.0
2016-Apr-24 09:32N 54°01' E 007°29'0 0.0
2016-Apr-24 08:32N 54°01' E 007°29'0 0.0
2016-Apr-24 07:32N 54°01' E 007°29'0 0.0
2016-Apr-24 06:32N 54°01' E 007°29'0 0.1
2016-Apr-24 05:32N 54°01' E 007°29'0 0.1
2016-Apr-24 04:32N 54°01' E 007°29'0 0.1
2016-Apr-24 03:32N 54°01' E 007°29'0 0.0
2016-Apr-24 02:32N 54°01' E 007°29'0 0.1
2016-Apr-24 01:26N 54°01' E 007°29'0 0.0
2016-Apr-24 00:32N 54°01' E 007°29'0 0.1
2016-Apr-23 23:32N 54°01' E 007°29'0 0.0
2016-Apr-23 22:32N 54°01' E 007°29'0 0.0
2016-Apr-23 21:32N 54°01' E 007°29'0 0.0
2016-Apr-23 20:32N 54°01' E 007°29'0 0.1
2016-Apr-23 19:32N 54°01' E 007°29'0 0.0
2016-Apr-23 18:32N 54°01' E 007°29'0 0.0
2016-Apr-23 17:32N 54°01' E 007°29'0 0.0
2016-Apr-23 16:32N 54°01' E 007°29'0 0.0
2016-Apr-23 15:32N 54°01' E 007°29'0 0.0
2016-Apr-23 14:32N 54°01' E 007°29'0 0.0
2016-Apr-23 13:32N 54°01' E 007°29'0 0.0
2016-Apr-23 12:32N 54°01' E 007°29'0 0.1
2016-Apr-23 11:32N 54°01' E 007°29'0 0.1
2016-Apr-23 10:32N 54°01' E 007°29'0 0.0
2016-Apr-23 09:32N 54°01' E 007°29'0 0.0
2016-Apr-23 08:32N 54°01' E 007°29'0 0.0
2016-Apr-23 07:32N 54°01' E 007°29'0 0.0
2016-Apr-23 06:32N 54°01' E 007°29'0 0.0
2016-Apr-23 05:32N 54°01' E 007°29'0 0.0
2016-Apr-23 04:32N 54°01' E 007°29'0 0.0
2016-Apr-23 03:32N 54°01' E 007°29'0 0.0
2016-Apr-23 02:32N 54°01' E 007°29'0 0.0
2016-Apr-23 01:32N 54°01' E 007°29'0 0.1
2016-Apr-23 00:32N 54°01' E 007°29'0 0.0
2016-Apr-22 23:32N 54°01' E 007°29'0 0.0
2016-Apr-22 22:32N 54°01' E 007°29'0 0.0
2016-Apr-22 21:32N 54°01' E 007°29'0 0.0
2016-Apr-22 20:32N 54°01' E 007°29'0 0.0
2016-Apr-22 19:32N 54°01' E 007°29'0 0.0
2016-Apr-22 18:32N 54°01' E 007°29'0 0.0
2016-Apr-22 17:32N 54°01' E 007°29'0 0.0
2016-Apr-22 16:29N 54°01' E 007°29'0 0.0
2016-Apr-22 15:32N 54°01' E 007°29'0 0.0
2016-Apr-22 14:32N 54°01' E 007°29'0 0.0
2016-Apr-22 13:32N 54°01' E 007°29'0 0.0
2016-Apr-22 12:32N 54°01' E 007°29'0 0.0
2016-Apr-22 11:32N 54°01' E 007°29'0 0.0
2016-Apr-22 10:32N 54°01' E 007°29'0 0.0
2016-Apr-22 09:32N 54°01' E 007°29'0 0.0
2016-Apr-22 08:32N 54°01' E 007°29'0 0.0
2016-Apr-22 07:32N 54°01' E 007°29'0 0.0
2016-Apr-22 06:32N 54°01' E 007°29'0 0.0
2016-Apr-22 05:32N 54°01' E 007°29'0 0.0
2016-Apr-22 04:32N 54°01' E 007°29'0 0.0
2016-Apr-22 03:32N 54°01' E 007°29'0 0.0
2016-Apr-22 02:29N 54°01' E 007°29'0 0.0
2016-Apr-22 01:32N 54°01' E 007°29'0 0.0
2016-Apr-22 00:32N 54°01' E 007°29'0 0.0
2016-Apr-21 23:29N 54°01' E 007°29'0 0.0
2016-Apr-21 22:32N 54°01' E 007°29'0 0.0
2016-Apr-21 21:32N 54°01' E 007°29'0 0.0
2016-Apr-21 20:32N 54°01' E 007°29'0 0.0
2016-Apr-21 19:32N 54°01' E 007°29'0 0.0
2016-Apr-21 18:32N 54°01' E 007°29'0 0.0
2016-Apr-21 17:32N 54°01' E 007°29'0 0.1
2016-Apr-21 16:32N 54°01' E 007°28'0 0.0
2016-Apr-21 15:32N 54°01' E 007°28'0 0.0
2016-Apr-21 14:32N 54°01' E 007°28'0 0.1
2016-Apr-21 13:32N 54°01' E 007°29'0 0.0
2016-Apr-21 12:32N 54°01' E 007°29'0 0.0
2016-Apr-21 11:32N 54°01' E 007°29'0 0.0
2016-Apr-21 10:32N 54°01' E 007°29'0 0.0
2016-Apr-21 09:32N 54°01' E 007°29'0 0.0
2016-Apr-21 08:32N 54°01' E 007°29'0 0.0
2016-Apr-21 07:29N 54°01' E 007°29'0 0.0
2016-Apr-21 06:29N 54°01' E 007°29'0 0.0
2016-Apr-21 05:32N 54°01' E 007°29'0 0.0
2016-Apr-21 04:32N 54°01' E 007°28'0 0.0
2016-Apr-21 03:32N 54°01' E 007°28'0 0.0
2016-Apr-21 02:32N 54°01' E 007°28'0 0.0
2016-Apr-21 01:32N 54°01' E 007°28'0 0.1
2016-Apr-21 00:32N 54°01' E 007°29'0 0.0
2016-Apr-20 23:32N 54°01' E 007°29'0 0.0
2016-Apr-20 22:32N 54°01' E 007°29'0 0.0
2016-Apr-20 21:32N 54°01' E 007°29'  

Dump ship's entire track history